Time;durP1;ratioP1;P1;durP2;ratioP2;P2;SDS_P1;SDS_P2;PMS_P1;PMS_P2;Temp;Humidity;BMP_temperature;BMP_pressure;BME280_temperature;BME280_humidity;BME280_pressure;Samples;Min_cycle;Max_cycle;Signal;HPM_P1;HPM_P2
2022/12/01 00:00:10;;;;;;;;;;;5.80;99.90;;;;;;5065489;28;19931;-63
2022/12/01 00:02:35;;;;;;;;;;;5.80;99.90;;;;;;5063907;28;19954;-63
2022/12/01 00:05:01;;;;;;;;;;;5.80;99.90;;;;;;5049439;28;19929;-63
2022/12/01 00:07:26;;;;;;;;;;;5.70;99.90;;;;;;5048807;28;19972;-63
2022/12/01 00:12:42;;;;;;;;;;;5.70;99.90;;;;;;5048997;28;20304;-63
2022/12/01 00:15:08;;;;;;;;;;;5.70;99.90;;;;;;5031549;28;19931;-71
2022/12/01 00:17:34;;;;;;;;;;;5.70;99.90;;;;;;5031592;28;19929;-63
2022/12/01 00:19:59;;;;;;;;;;;5.70;99.90;;;;;;5049601;28;19925;-63
2022/12/01 00:22:25;;;;;;;;;;;5.80;99.90;;;;;;5048637;27;20078;-64
2022/12/01 00:24:51;;;;;;;;;;;5.70;99.90;;;;;;5049145;28;19925;-64
2022/12/01 00:27:16;;;;;;;;;;;5.70;99.90;;;;;;5048657;28;20346;-64
2022/12/01 00:29:42;;;;;;;;;;;5.80;99.90;;;;;;5055484;28;19924;-62
2022/12/01 00:32:07;;;;;;;;;;;5.70;99.90;;;;;;5048932;28;19932;-62
2022/12/01 00:34:33;;;;;;;;;;;5.70;99.90;;;;;;5048660;28;19951;-67
2022/12/01 00:36:59;;;;;;;;;;;5.70;99.90;;;;;;5047343;28;19931;-63
2022/12/01 00:39:25;;;;;;;;;;;5.70;99.90;;;;;;5065246;28;19929;-64
2022/12/01 00:41:50;;;;;;;;;;;5.70;99.90;;;;;;5046945;28;19969;-63
2022/12/01 00:44:16;;;;;;;;;;;5.70;99.90;;;;;;5048131;27;19928;-63
2022/12/01 00:46:41;;;;;;;;;;;5.70;99.90;;;;;;5048716;28;19981;-64
2022/12/01 00:49:10;;;;;;;;;;;5.70;99.90;;;;;;5031159;28;19936;-64
2022/12/01 00:51:35;;;;;;;;;;;5.70;99.90;;;;;;5051357;28;20005;-63
2022/12/01 00:54:01;;;;;;;;;;;5.70;99.90;;;;;;5048946;28;20382;-63
2022/12/01 00:56:26;;;;;;;;;;;5.70;99.90;;;;;;5063903;28;20008;-65
2022/12/01 00:58:52;;;;;;;;;;;5.70;99.90;;;;;;5048331;28;20427;-64
2022/12/01 01:01:18;;;;;;;;;;;5.70;99.90;;;;;;5051489;28;20285;-64
2022/12/01 01:03:43;;;;;;;;;;;5.70;99.90;;;;;;5030639;28;19929;-68
2022/12/01 01:06:10;;;;;;;;;;;5.90;99.90;;;;;;5030575;28;19928;-63
2022/12/01 01:08:36;;;;;;;;;;;5.70;99.90;;;;;;5047992;28;20012;-63
2022/12/01 01:11:02;;;;;;;;;;;5.70;99.90;;;;;;5050506;28;20019;-63
2022/12/01 01:13:27;;;;;;;;;;;5.70;99.90;;;;;;5054560;28;19973;-64
2022/12/01 01:15:58;;;;;;;;;;;5.80;99.90;;;;;;5048182;28;20305;-63
2022/12/01 01:18:24;;;;;;;;;;;5.70;99.90;;;;;;5041690;28;19928;-63
2022/12/01 01:20:57;;;;;;;;;;;5.80;99.90;;;;;;5048059;28;19947;-63
2022/12/01 01:23:23;;;;;;;;;;;5.70;99.90;;;;;;5044684;27;19954;-64
2022/12/01 01:25:48;;;;;;;;;;;5.70;99.90;;;;;;5048335;28;19928;-63
2022/12/01 01:28:14;;;;;;;;;;;5.70;99.90;;;;;;5063330;28;19947;-63
2022/12/01 01:30:39;;;;;;;;;;;5.60;99.90;;;;;;5047560;28;19932;-63
2022/12/01 01:33:05;;;;;;;;;;;5.70;99.90;;;;;;5050339;28;19944;-64
2022/12/01 01:35:30;;;;;;;;;;;5.70;99.90;;;;;;5047468;28;19925;-64
2022/12/01 01:37:56;;;;;;;;;;;5.70;99.90;;;;;;5048079;28;19932;-64
2022/12/01 01:40:22;;;;;;;;;;;5.70;99.90;;;;;;5013272;28;19960;-63
2022/12/01 01:42:47;;;;;;;;;;;5.70;99.90;;;;;;5048556;28;19928;-64
2022/12/01 01:45:31;;;;;;;;;;;5.70;99.90;;;;;;5047439;28;20012;-63
2022/12/01 01:47:58;;;;;;;;;;;5.70;99.90;;;;;;5044737;28;19935;-68
2022/12/01 01:50:25;;;;;;;;;;;5.70;99.90;;;;;;5040803;28;19932;-63
2022/12/01 01:52:54;;;;;;;;;;;5.70;99.90;;;;;;5048528;28;19924;-65
2022/12/01 01:55:19;;;;;;;;;;;5.70;99.90;;;;;;5062030;28;20001;-70
2022/12/01 01:57:45;;;;;;;;;;;5.70;99.90;;;;;;5062141;27;19928;-63
2022/12/01 02:00:13;;;;;;;;;;;5.60;99.90;;;;;;5047595;28;19964;-63
2022/12/01 02:02:42;;;;;;;;;;;5.70;99.90;;;;;;5046503;28;19940;-63
2022/12/01 02:05:10;;;;;;;;;;;5.60;99.90;;;;;;5050453;28;20404;-63
2022/12/01 02:07:39;;;;;;;;;;;5.60;99.90;;;;;;5047155;28;20385;-64
2022/12/01 02:10:09;;;;;;;;;;;5.60;99.90;;;;;;5046170;28;19928;-64
2022/12/01 02:12:47;;;;;;;;;;;5.60;99.90;;;;;;5056889;28;19936;-62
2022/12/01 02:15:31;;;;;;;;;;;5.70;99.90;;;;;;5047749;28;19943;-63
2022/12/01 02:17:59;;;;;;;;;;;5.70;99.90;;;;;;5034917;27;19925;-64
2022/12/01 02:20:25;;;;;;;;;;;5.60;99.90;;;;;;5042609;27;20023;-70
2022/12/01 02:23:09;;;;;;;;;;;5.70;99.90;;;;;;5047458;28;20053;-63
2022/12/01 02:25:47;;;;;;;;;;;5.70;99.90;;;;;;5047678;27;20382;-62
2022/12/01 02:28:20;;;;;;;;;;;5.60;99.90;;;;;;5060093;28;19985;-62
2022/12/01 02:30:55;;;;;;;;;;;5.60;99.90;;;;;;5046986;28;20754;-62
2022/12/01 02:33:31;;;;;;;;;;;5.60;99.90;;;;;;5041268;27;19990;-63
2022/12/01 02:36:02;;;;;;;;;;;5.60;99.90;;;;;;5048815;28;20016;-63
2022/12/01 02:38:37;;;;;;;;;;;5.60;99.90;;;;;;5062140;28;20297;-66
2022/12/01 02:41:15;;;;;;;;;;;5.60;99.90;;;;;;5062913;27;20277;-64
2022/12/01 02:43:47;;;;;;;;;;;5.70;99.90;;;;;;5028958;28;20303;-62
2022/12/01 02:46:17;;;;;;;;;;;5.70;99.90;;;;;;5046051;28;19928;-69
2022/12/01 02:48:45;;;;;;;;;;;5.60;99.90;;;;;;5035695;27;19925;-64
2022/12/01 02:51:15;;;;;;;;;;;5.80;99.90;;;;;;5043595;28;19929;-62
2022/12/01 02:53:40;;;;;;;;;;;5.70;99.90;;;;;;5046407;28;19932;-64
2022/12/01 02:56:08;;;;;;;;;;;5.70;99.90;;;;;;5049230;27;20009;-63
2022/12/01 02:58:34;;;;;;;;;;;5.70;99.90;;;;;;5045829;28;21500;-64
2022/12/01 03:01:10;;;;;;;;;;;5.60;99.90;;;;;;5046910;28;19945;-63
2022/12/01 03:03:54;;;;;;;;;;;5.70;99.90;;;;;;5048322;27;20020;-63
2022/12/01 03:06:29;;;;;;;;;;;5.60;99.90;;;;;;5032334;28;19925;-65
2022/12/01 03:09:01;;;;;;;;;;;5.60;99.90;;;;;;5050385;27;20024;-62
2022/12/01 03:11:33;;;;;;;;;;;6.10;99.90;;;;;;5050252;28;20297;-62
2022/12/01 03:14:01;;;;;;;;;;;5.70;99.90;;;;;;5050298;28;19928;-62
2022/12/01 03:16:30;;;;;;;;;;;5.70;99.90;;;;;;5053294;28;19972;-62
2022/12/01 03:19:05;;;;;;;;;;;5.70;99.90;;;;;;5027791;28;19928;-64
2022/12/01 03:21:34;;;;;;;;;;;5.70;99.90;;;;;;5031653;28;19932;-63
2022/12/01 03:24:02;;;;;;;;;;;5.70;99.90;;;;;;5049922;28;20702;-62
2022/12/01 03:26:29;;;;;;;;;;;5.60;99.90;;;;;;5045321;28;20024;-63
2022/12/01 03:28:57;;;;;;;;;;;5.70;99.90;;;;;;5034867;28;20516;-65
2022/12/01 03:31:26;;;;;;;;;;;5.70;99.90;;;;;;5033339;28;19933;-64
2022/12/01 03:33:56;;;;;;;;;;;5.70;99.90;;;;;;5041275;28;20358;-62
2022/12/01 03:36:26;;;;;;;;;;;5.60;99.90;;;;;;5039090;28;20271;-66
2022/12/01 03:38:54;;;;;;;;;;;5.70;99.90;;;;;;5022428;28;19929;-63
2022/12/01 03:41:24;;;;;;;;;;;5.70;99.90;;;;;;5031987;28;19929;-63
2022/12/01 03:43:54;;;;;;;;;;;5.70;99.90;;;;;;5032694;28;20317;-67
2022/12/01 03:46:39;;;;;;;;;;;5.70;99.90;;;;;;5050543;28;19929;-63
2022/12/01 03:49:07;;;;;;;;;;;5.70;99.90;;;;;;5037943;28;19928;-63
2022/12/01 03:51:42;;;;;;;;;;;5.70;99.90;;;;;;5050764;27;19926;-65
2022/12/01 03:54:07;;;;;;;;;;;5.70;99.90;;;;;;5034320;28;19925;-61
2022/12/01 03:56:37;;;;;;;;;;;5.70;99.90;;;;;;5046428;27;19935;-64
2022/12/01 03:59:04;;;;;;;;;;;5.70;99.90;;;;;;5046634;28;19973;-62
2022/12/01 04:01:31;;;;;;;;;;;5.70;99.90;;;;;;5049543;28;19936;-62
2022/12/01 04:04:07;;;;;;;;;;;5.70;99.90;;;;;;5048560;28;19984;-63
2022/12/01 04:06:33;;;;;;;;;;;5.60;99.90;;;;;;5049267;28;19936;-66
2022/12/01 04:08:58;;;;;;;;;;;5.60;99.90;;;;;;5044055;28;20007;-64
2022/12/01 04:14:09;;;;;;;;;;;5.70;99.90;;;;;;5042194;28;19928;-62
2022/12/01 04:16:34;;;;;;;;;;;5.70;99.90;;;;;;5064528;28;19951;-68
2022/12/01 04:19:00;;;;;;;;;;;5.70;99.90;;;;;;5048777;28;19925;-65
2022/12/01 04:21:25;;;;;;;;;;;5.70;99.90;;;;;;5057652;28;19932;-66
2022/12/01 04:24:00;;;;;;;;;;;5.70;99.90;;;;;;5030870;28;20389;-64
2022/12/01 04:26:31;;;;;;;;;;;5.70;99.90;;;;;;5049271;28;19932;-63
2022/12/01 04:28:57;;;;;;;;;;;5.70;99.90;;;;;;5048310;28;19977;-63
2022/12/01 04:31:23;;;;;;;;;;;5.70;99.90;;;;;;5053530;28;20520;-61
2022/12/01 04:33:48;;;;;;;;;;;5.70;99.90;;;;;;5013972;28;19929;-61
2022/12/01 04:36:14;;;;;;;;;;;5.70;99.90;;;;;;5064479;28;20342;-62
2022/12/01 04:38:39;;;;;;;;;;;5.70;99.90;;;;;;5030924;28;19924;-64
2022/12/01 04:41:11;;;;;;;;;;;5.70;99.90;;;;;;5045031;27;20012;-63
2022/12/01 04:43:37;;;;;;;;;;;5.70;99.90;;;;;;5049087;28;19925;-62
2022/12/01 04:46:04;;;;;;;;;;;5.70;99.90;;;;;;5048293;28;19925;-63
2022/12/01 04:48:30;;;;;;;;;;;5.70;99.90;;;;;;5048758;28;20465;-63
2022/12/01 04:50:55;;;;;;;;;;;5.70;99.90;;;;;;5015674;28;19972;-63
2022/12/01 04:53:21;;;;;;;;;;;5.70;99.90;;;;;;5031034;28;19939;-62
2022/12/01 04:55:46;;;;;;;;;;;5.70;99.90;;;;;;5027260;28;19943;-71
2022/12/01 04:58:12;;;;;;;;;;;5.70;99.90;;;;;;5030533;28;20363;-63
2022/12/01 05:00:37;;;;;;;;;;;5.70;99.90;;;;;;5048551;28;19950;-62
2022/12/01 05:03:03;;;;;;;;;;;5.70;99.90;;;;;;5015412;28;20281;-65
2022/12/01 05:05:29;;;;;;;;;;;5.70;99.90;;;;;;5048653;27;19979;-63
2022/12/01 05:07:55;;;;;;;;;;;5.80;99.90;;;;;;5047768;28;19974;-65
2022/12/01 05:10:21;;;;;;;;;;;5.70;99.90;;;;;;5047755;28;19929;-64
2022/12/01 05:12:46;;;;;;;;;;;5.60;99.90;;;;;;5052469;28;19929;-72
2022/12/01 05:15:12;;;;;;;;;;;5.60;99.90;;;;;;5048017;28;19925;-64
2022/12/01 05:17:38;;;;;;;;;;;5.50;99.90;;;;;;5048400;28;19925;-63
2022/12/01 05:22:48;;;;;;;;;;;5.40;99.90;;;;;;5064559;28;19972;-71
2022/12/01 05:25:13;;;;;;;;;;;5.30;99.90;;;;;;5047709;28;19976;-62
2022/12/01 05:27:39;;;;;;;;;;;5.20;99.90;;;;;;5063362;28;20403;-66
2022/12/01 05:30:05;;;;;;;;;;;5.20;99.90;;;;;;5046222;28;20285;-63
2022/12/01 05:32:30;;;;;;;;;;;5.10;99.90;;;;;;5050631;28;19938;-62
2022/12/01 05:34:56;;;;;;;;;;;5.10;99.90;;;;;;5050439;28;20301;-63
2022/12/01 05:37:21;;;;;;;;;;;5.00;99.90;;;;;;5047996;28;19929;-62
2022/12/01 05:39:47;;;;;;;;;;;4.90;99.90;;;;;;5047965;28;20034;-63
2022/12/01 05:42:12;;;;;;;;;;;4.90;99.90;;;;;;5047317;28;20015;-62
2022/12/01 05:44:38;;;;;;;;;;;4.80;99.90;;;;;;5052123;28;19932;-64
2022/12/01 05:47:04;;;;;;;;;;;4.70;99.90;;;;;;5050690;28;19964;-63
2022/12/01 05:49:29;;;;;;;;;;;4.70;99.90;;;;;;5063302;28;19925;-63
2022/12/01 05:51:55;;;;;;;;;;;4.70;99.90;;;;;;5047023;28;19957;-64
2022/12/01 05:54:20;;;;;;;;;;;4.60;99.90;;;;;;5047102;28;19977;-63
2022/12/01 05:56:48;;;;;;;;;;;4.60;99.90;;;;;;5041792;27;20210;-63
2022/12/01 05:59:13;;;;;;;;;;;4.60;99.90;;;;;;5062196;27;20125;-64
2022/12/01 06:01:39;;;;;;;;;;;4.50;99.90;;;;;;5047639;28;19929;-63
2022/12/01 06:04:04;;;;;;;;;;;4.60;99.90;;;;;;5051234;28;19963;-67
2022/12/01 06:06:30;;;;;;;;;;;4.60;99.90;;;;;;5047442;28;19925;-63
2022/12/01 06:08:55;;;;;;;;;;;4.50;99.90;;;;;;5062551;28;19925;-71
2022/12/01 06:11:21;;;;;;;;;;;4.50;99.90;;;;;;5047515;27;20388;-64
2022/12/01 06:13:47;;;;;;;;;;;4.50;99.90;;;;;;5047159;28;20031;-63
2022/12/01 06:16:12;;;;;;;;;;;4.50;99.90;;;;;;5046517;28;19935;-62
2022/12/01 06:18:38;;;;;;;;;;;4.50;99.90;;;;;;5041771;28;20444;-63
2022/12/01 06:21:04;;;;;;;;;;;4.50;99.90;;;;;;5054515;28;19930;-63
2022/12/01 06:23:31;;;;;;;;;;;4.40;99.90;;;;;;5041114;28;19925;-63
2022/12/01 06:25:56;;;;;;;;;;;4.40;99.90;;;;;;5053633;28;20295;-70
2022/12/01 06:28:22;;;;;;;;;;;4.40;99.90;;;;;;5041689;28;19929;-63
2022/12/01 06:30:47;;;;;;;;;;;4.40;99.90;;;;;;5020274;28;20338;-67
2022/12/01 06:33:13;;;;;;;;;;;4.40;99.90;;;;;;5067123;27;20012;-65
2022/12/01 06:35:39;;;;;;;;;;;4.50;99.90;;;;;;5021266;28;19925;-63
2022/12/01 06:38:04;;;;;;;;;;;4.40;99.90;;;;;;5058858;27;19929;-63
2022/12/01 06:40:30;;;;;;;;;;;4.40;99.90;;;;;;5044235;28;20445;-62
2022/12/01 06:42:58;;;;;;;;;;;4.30;99.90;;;;;;5062084;28;20011;-62
2022/12/01 06:45:23;;;;;;;;;;;4.30;99.90;;;;;;5051571;28;19925;-64
2022/12/01 06:47:52;;;;;;;;;;;4.20;99.90;;;;;;5023495;28;19928;-63
2022/12/01 06:50:17;;;;;;;;;;;4.20;99.90;;;;;;5043451;28;19935;-64
2022/12/01 06:52:43;;;;;;;;;;;4.20;99.90;;;;;;5026345;28;20267;-62
2022/12/01 06:55:08;;;;;;;;;;;4.60;99.90;;;;;;5033971;28;19925;-62
2022/12/01 06:57:34;;;;;;;;;;;4.20;99.90;;;;;;5050397;28;19996;-64
2022/12/01 06:59:59;;;;;;;;;;;4.10;99.90;;;;;;5048723;28;19931;-63
2022/12/01 07:02:25;;;;;;;;;;;4.00;99.90;;;;;;5049390;28;19989;-62
2022/12/01 07:04:50;;;;;;;;;;;4.00;99.90;;;;;;5055368;28;19929;-62
2022/12/01 07:07:16;;;;;;;;;;;4.20;99.90;;;;;;5049689;28;20262;-63
2022/12/01 07:09:41;;;;;;;;;;;4.10;99.90;;;;;;5064318;27;19929;-64
2022/12/01 07:12:07;;;;;;;;;;;3.90;99.90;;;;;;5044434;28;19925;-63
2022/12/01 07:14:33;;;;;;;;;;;3.90;99.90;;;;;;5047760;28;20301;-63
2022/12/01 07:16:58;;;;;;;;;;;3.80;99.90;;;;;;5047084;28;20020;-63
2022/12/01 07:19:24;;;;;;;;;;;3.70;99.90;;;;;;5060577;27;19932;-63
2022/12/01 07:21:50;;;;;;;37.90;23.70;;;3.70;99.90;;;;;;5060206;27;20578;-64
2022/12/01 07:24:16;;;;;;;42.00;23.42;;;3.60;99.90;;;;;;5059833;28;20057;-63
2022/12/01 07:26:42;;;;;;;41.33;22.98;;;3.60;99.90;;;;;;5048822;28;20083;-64
2022/12/01 07:29:09;;;;;;;36.88;22.48;;;3.60;99.90;;;;;;5047351;28;20045;-63
2022/12/01 07:31:35;;;;;;;36.13;21.67;;;3.70;99.90;;;;;;5012725;28;20080;-63
2022/12/01 07:34:01;;;;;;;31.27;21.08;;;3.70;99.90;;;;;;5039876;28;20046;-63
2022/12/01 07:36:27;;;;;;;30.88;20.05;;;3.60;99.90;;;;;;5042246;28;20044;-64
2022/12/01 07:38:53;;;;;;;31.25;20.33;;;3.50;99.90;;;;;;5029552;28;20521;-63
2022/12/01 07:41:19;;;;;;;32.97;20.02;;;3.40;99.90;;;;;;5048182;28;20045;-62
2022/12/01 07:43:45;;;;;;;34.45;20.73;;;3.50;99.90;;;;;;5047773;28;20482;-63
2022/12/01 07:46:20;;;;;;;35.67;21.30;;;3.40;99.90;;;;;;5030171;28;20044;-63
2022/12/01 07:48:47;;;;;;;35.22;21.33;;;3.40;99.90;;;;;;5044828;28;20045;-63
2022/12/01 07:51:17;;;;;;;33.85;21.95;;;3.40;99.90;;;;;;5029462;27;20056;-64
2022/12/01 07:53:44;;;;;;;36.20;21.50;;;3.40;99.90;;;;;;5055734;28;20042;-64
2022/12/01 07:56:10;;;;;;;33.17;22.40;;;3.40;99.90;;;;;;5046855;27;20041;-65
2022/12/01 07:58:36;;;;;;;35.70;21.70;;;3.40;99.90;;;;;;5029368;28;20641;-64
2022/12/01 08:01:14;;;;;;;36.72;21.63;;;3.40;99.90;;;;;;5014777;28;20091;-62
2022/12/01 08:03:41;;;;;;;34.97;21.02;;;3.40;99.90;;;;;;5042089;28;20042;-63
2022/12/01 08:06:08;;;;;;;35.17;21.23;;;3.40;99.90;;;;;;5025417;28;20049;-65
2022/12/01 08:08:35;;;;;;;33.72;21.40;;;3.60;99.90;;;;;;5031366;28;20041;-64
2022/12/01 08:11:06;;;;;;;36.10;22.42;;;3.50;99.90;;;;;;5041023;28;20450;-62
2022/12/01 08:13:32;;;;;;;;;;;3.40;99.90;;;;;;5044214;28;20368;-63
2022/12/01 08:15:57;;;;;;;;;;;3.50;99.90;;;;;;5043356;28;19940;-63
2022/12/01 08:18:23;;;;;;;;;;;3.50;99.90;;;;;;5048173;28;19935;-63
2022/12/01 08:20:49;;;;;;;;;;;3.50;99.90;;;;;;5057783;28;19925;-63
2022/12/01 08:23:15;;;;;;;;;;;3.50;99.90;;;;;;5042481;28;19933;-67
2022/12/01 08:25:40;;;;;;;;;;;3.50;99.90;;;;;;5024078;28;19925;-63
2022/12/01 08:28:06;;;;;;;;;;;3.50;99.90;;;;;;5045137;28;19925;-63
2022/12/01 08:30:31;;;;;;;;;;;3.50;99.90;;;;;;5044986;28;20246;-63
2022/12/01 08:32:57;;;;;;;;;;;3.50;99.90;;;;;;5041204;28;19933;-62
2022/12/01 08:35:24;;;;;;;;;;;3.50;99.90;;;;;;5038368;28;20027;-63
2022/12/01 08:37:52;;;;;;;;;;;3.50;99.90;;;;;;5040553;28;20335;-63
2022/12/01 08:40:18;;;;;;;;;;;3.60;99.90;;;;;;5044481;28;19932;-63
2022/12/01 08:42:44;;;;;;;;;;;3.60;99.90;;;;;;5022450;28;19933;-63
2022/12/01 08:45:10;;;;;;;;;;;3.60;99.90;;;;;;5056311;28;19925;-63
2022/12/01 08:47:35;;;;;;;;;;;3.70;99.90;;;;;;5041844;28;19925;-63
2022/12/01 08:50:03;;;;;;;;;;;3.70;99.90;;;;;;5041224;28;19932;-63
2022/12/01 08:52:32;;;;;;;;;;;3.70;99.90;;;;;;5044562;28;19925;-62
2022/12/01 08:54:58;;;;;;;;;;;3.70;99.90;;;;;;5039163;27;19945;-63
2022/12/01 08:57:23;;;;;;;;;;;3.80;99.90;;;;;;5048575;28;20302;-63
2022/12/01 08:59:49;;;;;;;;;;;3.80;99.90;;;;;;5014245;28;20019;-63
2022/12/01 09:02:16;;;;;;;;;;;3.80;99.90;;;;;;5008505;28;20037;-62
2022/12/01 09:04:43;;;;;;;;;;;3.90;99.90;;;;;;5008000;28;19930;-63
2022/12/01 09:07:09;;;;;;;;;;;4.10;99.90;;;;;;5008795;28;19925;-63
2022/12/01 09:09:35;;;;;;;;;;;3.90;99.90;;;;;;5007606;28;19940;-63
2022/12/01 09:12:00;;;;;;;;;;;3.90;99.90;;;;;;5014676;28;19930;-63
2022/12/01 09:14:27;;;;;;;;;;;4.00;99.90;;;;;;4991074;28;20477;-64
2022/12/01 09:16:52;;;;;;;;;;;4.10;99.90;;;;;;5008007;28;19925;-64
2022/12/01 09:19:18;;;;;;;;;;;4.10;99.90;;;;;;5008137;28;19986;-64
2022/12/01 09:21:44;;;;;;;;;;;4.10;99.90;;;;;;5010223;28;19926;-64
2022/12/01 09:24:14;;;;;;;;;;;4.20;99.90;;;;;;5004622;28;19937;-64
2022/12/01 09:26:40;;;;;;;;;;;4.20;99.90;;;;;;4999817;28;20394;-64
2022/12/01 09:29:06;;;;;;;;;;;4.30;99.90;;;;;;5002206;28;20025;-64
2022/12/01 09:31:32;;;;;;;;;;;4.40;99.90;;;;;;5004772;28;19925;-64
2022/12/01 09:33:59;;;;;;;;;;;4.40;99.90;;;;;;5001806;28;19930;-64
2022/12/01 09:36:25;;;;;;;;;;;4.30;99.90;;;;;;5001948;28;20330;-64
2022/12/01 09:38:50;;;;;;;;;;;4.40;99.90;;;;;;4998925;28;20024;-65
2022/12/01 09:41:22;;;;;;;;;;;4.50;99.90;;;;;;5006545;28;20324;-64
2022/12/01 09:44:00;;;;;;;;;;;4.50;99.90;;;;;;5012102;28;20378;-64
2022/12/01 09:46:30;;;;;;;;;;;4.60;99.90;;;;;;5007609;28;20303;-64
2022/12/01 09:48:56;;;;;;;;;;;4.60;99.90;;;;;;5008242;28;20012;-65
2022/12/01 09:51:24;;;;;;;;;;;4.70;99.90;;;;;;5005808;28;20398;-64
2022/12/01 09:53:51;;;;;;;;;;;4.70;99.90;;;;;;5003269;28;20087;-64
2022/12/01 09:56:28;;;;;;;;;;;4.80;99.90;;;;;;4998967;28;19925;-64
2022/12/01 09:58:56;;;;;;;;;;;4.80;99.90;;;;;;5006892;28;19925;-64
2022/12/01 10:01:33;;;;;;;;;;;4.90;99.90;;;;;;5007749;28;20398;-63
2022/12/01 10:04:04;;;;;;;;;;;4.90;99.90;;;;;;5000072;28;19929;-63
2022/12/01 10:06:37;;;;;;;;;;;4.90;99.90;;;;;;4999230;28;20374;-63
2022/12/01 10:09:09;;;;;;;;;;;5.00;99.90;;;;;;5028716;28;19965;-63
2022/12/01 10:11:38;;;;;;;;;;;5.10;99.90;;;;;;5001506;28;20515;-63
2022/12/01 10:14:05;;;;;;;;;;;5.20;99.90;;;;;;5014043;28;19929;-63
2022/12/01 10:16:57;;;;;;;;;;;5.20;99.90;;;;;;5006329;28;19933;-63
2022/12/01 10:19:27;;;;;;;;;;;5.20;99.90;;;;;;5035150;28;19973;-64
2022/12/01 10:21:58;;;;;;;;;;;5.30;99.90;;;;;;4995885;28;19929;-63
2022/12/01 10:24:24;;;;;;;;;;;5.40;99.90;;;;;;5000402;28;20310;-63
2022/12/01 10:27:07;;;;;;;;;;;5.40;99.90;;;;;;4997063;28;19925;-65
2022/12/01 10:29:53;;;;;;;;;;;5.50;99.90;;;;;;4999885;28;19926;-64
2022/12/01 10:32:22;;;;;;;;;;;5.60;99.90;;;;;;4996977;28;19934;-63
2022/12/01 10:34:48;;;;;;;;;;;5.60;99.90;;;;;;5000590;28;20136;-64
2022/12/01 10:37:31;;;;;;;;;;;5.70;99.90;;;;;;5003703;28;20034;-63
2022/12/01 10:39:57;;;;;;;;;;;5.60;99.90;;;;;;4996277;28;19974;-63
2022/12/01 10:42:41;;;;;;;;;;;5.60;99.90;;;;;;5000280;28;20303;-63
2022/12/01 10:45:20;;;;;;;;;;;5.60;99.90;;;;;;5005180;28;19977;-63
2022/12/01 10:48:04;;;;;;;;;;;5.50;99.90;;;;;;4997849;28;19973;-63
2022/12/01 10:50:30;;;;;;;;;;;5.50;99.90;;;;;;5033479;28;19951;-63
2022/12/01 10:52:55;;;;;;;;;;;5.60;99.90;;;;;;5000590;28;20434;-63
2022/12/01 10:55:21;;;;;;;;;;;5.70;99.90;;;;;;5035505;28;20346;-65
2022/12/01 10:57:46;;;;;;;;;;;5.70;99.90;;;;;;5005724;28;20310;-63
2022/12/01 11:00:20;;;;;;;;;;;5.90;99.90;;;;;;5042345;28;19977;-63
2022/12/01 11:02:45;;;;;;;;;;;5.60;99.90;;;;;;5028929;28;19932;-63
2022/12/01 11:05:19;;;;;;;;;;;5.60;99.90;;;;;;5047035;28;19932;-63
2022/12/01 11:07:46;;;;;;;;;;;5.70;99.90;;;;;;5047267;28;19929;-64
2022/12/01 11:10:31;;;;;;;;;;;5.70;99.90;;;;;;5029260;28;19924;-63
2022/12/01 11:12:56;;;;;;;;;;;5.70;99.90;;;;;;5058179;28;19921;-63
2022/12/01 11:15:30;;;;;;;;;;;6.40;99.90;;;;;;5047290;28;19931;-63
2022/12/01 11:18:03;;;;;;;;;;;5.80;99.90;;;;;;5053570;28;19933;-62
2022/12/01 11:20:33;;;;;;;;;;;5.80;99.90;;;;;;5028936;28;19925;-62
2022/12/01 11:23:17;;;;;;;;;;;5.80;99.90;;;;;;5055193;28;19952;-64
2022/12/01 11:26:03;;;;;;;;;;;5.90;99.90;;;;;;5049717;28;19956;-64
2022/12/01 11:28:30;;;;;;;;;;;5.90;99.90;;;;;;5068600;28;20019;-62
2022/12/01 11:31:00;;;;;;;;;;;6.00;99.90;;;;;;5049835;28;19933;-62
2022/12/01 11:33:27;;;;;;;;;;;6.10;99.90;;;;;;5050257;28;19968;-62
2022/12/01 11:35:52;;;;;;;;;;;6.10;99.90;;;;;;5049106;28;19932;-64
2022/12/01 11:38:20;;;;;;;;;;;6.20;99.90;;;;;;5055495;28;19924;-63
2022/12/01 11:40:47;;;;;;;;;;;6.30;99.90;;;;;;5031602;28;20023;-62
2022/12/01 11:43:33;;;;;;;;;;;6.30;99.90;;;;;;5049521;28;20270;-63
2022/12/01 11:46:01;;;;;;;;;;;6.30;99.90;;;;;;5049157;28;19925;-64
2022/12/01 11:48:28;;;;;;;;;;;6.20;99.90;;;;;;5066521;28;19925;-63
2022/12/01 11:51:05;;;;;;;;;;;6.20;99.90;;;;;;5055918;28;20008;-63
2022/12/01 11:53:35;;;;;;;;;;;6.30;99.90;;;;;;5049974;28;19935;-64
2022/12/01 11:56:15;;;;;;;;;;;6.20;99.90;;;;;;5047130;27;19948;-63
2022/12/01 11:58:45;;;;;;;;;;;6.20;99.90;;;;;;5052543;27;19928;-67
2022/12/01 12:01:30;;;;;;;;;;;6.20;99.90;;;;;;5043687;28;19925;-63
2022/12/01 12:04:21;;;;;;;;;;;6.10;99.90;;;;;;5063268;28;19976;-63
2022/12/01 12:06:57;;;;;;;;;;;6.10;99.90;;;;;;5049183;28;19970;-63
2022/12/01 12:09:35;;;;;;;;;;;6.10;99.90;;;;;;5065256;28;19991;-63
2022/12/01 12:12:12;;;;;;;;;;;6.00;99.90;;;;;;5048843;28;19941;-63
2022/12/01 12:14:47;;;;;;;;;;;6.00;99.90;;;;;;5049537;28;20016;-64
2022/12/01 12:17:18;;;;;;;;;;;6.00;99.90;;;;;;5049547;28;20298;-64
2022/12/01 12:20:00;;;;;;;;;;;5.90;99.90;;;;;;5063085;27;20011;-65
2022/12/01 12:22:41;;;;;;;;;;;6.00;99.90;;;;;;5042222;28;19997;-63
2022/12/01 12:25:23;;;;;;;;;;;6.00;99.90;;;;;;5030415;28;19929;-64
2022/12/01 12:27:54;;;;;;;;;;;6.00;99.90;;;;;;5036277;28;19925;-65
2022/12/01 12:30:25;;;;;;;;;;;6.00;99.90;;;;;;5043300;28;19925;-64
2022/12/01 12:32:57;;;;;;;;;;;6.10;99.90;;;;;;5046390;28;19925;-65
2022/12/01 12:35:43;;;;;;;;;;;6.20;99.90;;;;;;5025123;28;19931;-64
2022/12/01 12:38:20;;;;;;;;;;;6.20;99.90;;;;;;5040109;28;20015;-65
2022/12/01 12:40:52;;;;;;;;;;;6.30;99.90;;;;;;5021786;28;19933;-64
2022/12/01 12:43:21;;;;;;;;;;;6.40;99.90;;;;;;5034235;28;19928;-64
2022/12/01 12:45:59;;;;;;;;;;;6.40;99.90;;;;;;5040411;28;19944;-64
2022/12/01 12:48:33;;;;;;;;;;;6.50;99.90;;;;;;5035238;28;20001;-66
2022/12/01 12:51:19;;;;;;;;;;;6.50;99.90;;;;;;5025344;28;19956;-67
2022/12/01 12:53:59;;;;;;;;;;;6.50;99.90;;;;;;5053673;28;19932;-64
2022/12/01 12:56:25;;;;;;;;;;;6.60;99.90;;;;;;5046658;28;19929;-64
2022/12/01 12:58:55;;;;;;;;;;;6.60;99.90;;;;;;5053224;28;20393;-66
2022/12/01 13:01:23;;;;;;;;;;;6.60;99.90;;;;;;5064133;28;19925;-63
2022/12/01 13:03:51;;;;;;;;;;;6.60;99.90;;;;;;5045000;27;19929;-64
2022/12/01 13:06:21;;;;;;;;;;;6.60;99.90;;;;;;5048525;28;19932;-61
2022/12/01 13:08:53;;;;;;;;;;;6.60;99.90;;;;;;5048667;28;20123;-63
2022/12/01 13:11:26;;;;;;;;;;;6.50;99.90;;;;;;5048185;28;19933;-62
2022/12/01 13:13:57;;;;;;;;;;;6.50;99.90;;;;;;5049740;28;20380;-62
2022/12/01 13:16:34;;;;;;;;;;;6.40;99.90;;;;;;5048521;28;19925;-64
2022/12/01 13:19:03;;;;;;;;;;;6.40;99.90;;;;;;5048111;28;20032;-64
2022/12/01 13:21:34;;;;;;;;;;;6.30;99.90;;;;;;5031234;28;20369;-63
2022/12/01 13:24:01;;;;;;;;;;;6.20;99.90;;;;;;5048383;28;19944;-63
2022/12/01 13:26:27;;;;;;;;;;;6.30;99.90;;;;;;5048488;28;20007;-63
2022/12/01 13:28:53;;;;;;;;;;;6.20;99.90;;;;;;5047881;28;20057;-65
2022/12/01 13:31:19;;;;;;;;;;;6.10;99.90;;;;;;5048162;28;20047;-64
2022/12/01 13:33:59;;;;;;;;;;;6.10;99.90;;;;;;5052498;28;19937;-64
2022/12/01 13:36:25;;;;;;;;;;;6.10;99.90;;;;;;5045842;28;19933;-63
2022/12/01 13:39:05;;;;;;;;;;;6.10;99.90;;;;;;5047772;28;20382;-67
2022/12/01 13:41:32;;;;;;;;;;;6.10;99.90;;;;;;5048003;28;19929;-63
2022/12/01 13:44:03;;;;;;;;;;;6.10;99.90;;;;;;5047913;28;19988;-64
2022/12/01 13:46:48;;;;;;;;;;;6.00;99.90;;;;;;5045144;28;20412;-63
2022/12/01 13:49:32;;;;;;;;;;;6.10;99.90;;;;;;5047345;28;19925;-64
2022/12/01 13:52:17;;;;;;;;;;;6.10;99.90;;;;;;5047646;28;19932;-64
2022/12/01 13:55:01;;;;;;;;;;;6.10;99.90;;;;;;5045591;27;20399;-63
2022/12/01 13:57:29;;;;;;;;;;;6.00;99.90;;;;;;5046339;27;19925;-65
2022/12/01 13:59:57;;;;;;;;;;;6.10;99.90;;;;;;5047632;28;19928;-65
2022/12/01 14:02:24;;;;;;;;;;;6.00;99.90;;;;;;5048008;28;19932;-64
2022/12/01 14:04:49;;;;;;;;;;;6.00;99.90;;;;;;5030476;28;19935;-64
2022/12/01 14:07:32;;;;;;;;;;;6.00;99.90;;;;;;5063305;28;20330;-65
2022/12/01 14:10:07;;;;;;;;;;;6.00;99.90;;;;;;5028812;28;19935;-64
2022/12/01 14:12:36;;;;;;;;;;;6.00;99.90;;;;;;5013807;28;20015;-66
2022/12/01 14:15:21;;;;;;;;;;;6.00;99.90;;;;;;5047246;28;20270;-62
2022/12/01 14:17:46;;;;;;;;;;;5.90;99.90;;;;;;5061448;28;19925;-64
2022/12/01 14:20:12;;;;;;;;;;;5.90;99.90;;;;;;5047810;28;19969;-64
2022/12/01 14:22:39;;;;;;;;;;;5.90;99.90;;;;;;5047276;28;20301;-64
2022/12/01 14:25:19;;;;;;;;;;;5.90;99.90;;;;;;5047203;28;19936;-64
2022/12/01 14:27:46;;;;;;;;;;;5.90;99.90;;;;;;5031287;28;19929;-64
2022/12/01 14:30:31;;;;;;;;;;;5.90;99.90;;;;;;5029511;28;19928;-64
2022/12/01 14:33:35;;;;;;;;;;;5.90;99.90;;;;;;5047193;28;19979;-64
2022/12/01 14:36:00;;;;;;;;;;;5.90;99.90;;;;;;5088011;28;19956;-64
2022/12/01 14:38:26;;;;;;;;;;;5.90;99.90;;;;;;5076004;28;20048;-64
2022/12/01 14:40:52;;;;;;;;;;;5.90;99.90;;;;;;5068615;28;20308;-64